Time;durP1;ratioP1;P1;durP2;ratioP2;P2;SDS_P1;SDS_P2;PMS_P1;PMS_P2;Temp;Humidity;BMP_temperature;BMP_pressure;BME280_temperature;BME280_humidity;BME280_pressure;Samples;Min_cycle;Max_cycle;Signal;HPM_P1;HPM_P2
2022/07/04 00:00:19;;;;;;;5.32;1.63;;;15.20;99.90;;;;;;5072068;28;20449;-63
2022/07/04 00:02:45;;;;;;;3.30;1.50;;;15.20;99.90;;;;;;5072190;28;20195;-62
2022/07/04 00:05:12;;;;;;;4.85;1.60;;;15.20;99.90;;;;;;5074117;28;20123;-63
2022/07/04 00:07:39;;;;;;;3.58;1.40;;;15.30;99.90;;;;;;5079225;28;20036;-62
2022/07/04 00:10:06;;;;;;;2.55;1.50;;;15.30;99.90;;;;;;5080773;28;20112;-63
2022/07/04 00:12:31;;;;;;;3.33;1.75;;;15.30;99.90;;;;;;5074689;28;20020;-63
2022/07/04 00:14:57;;;;;;;2.92;1.40;;;15.20;99.90;;;;;;5075790;28;20019;-63
2022/07/04 00:17:22;;;;;;;3.78;1.40;;;15.30;99.90;;;;;;5080607;28;20197;-62
2022/07/04 00:19:48;;;;;;;4.05;1.45;;;15.40;99.90;;;;;;5079799;28;20076;-63
2022/07/04 00:22:13;;;;;;;6.82;1.70;;;15.20;99.90;;;;;;5071543;28;20032;-63
2022/07/04 00:24:39;;;;;;;3.70;1.70;;;15.20;99.90;;;;;;5077631;28;20032;-62
2022/07/04 00:27:05;;;;;;;2.72;1.58;;;15.20;99.90;;;;;;5078669;28;20038;-64
2022/07/04 00:29:30;;;;;;;4.35;2.08;;;15.20;99.90;;;;;;5075603;28;20103;-61
2022/07/04 00:31:56;;;;;;;5.50;1.65;;;15.30;99.90;;;;;;5074616;28;20031;-64
2022/07/04 00:34:22;;;;;;;7.45;2.05;;;15.10;99.90;;;;;;5077366;28;20216;-63
2022/07/04 00:36:47;;;;;;;2.67;1.48;;;15.10;99.90;;;;;;5073868;28;20020;-63
2022/07/04 00:39:13;;;;;;;3.00;1.75;;;15.20;99.90;;;;;;5079673;28;20067;-62
2022/07/04 00:41:39;;;;;;;3.33;1.90;;;14.70;99.90;;;;;;5077547;28;20082;-62
2022/07/04 00:44:07;;;;;;;6.03;2.20;;;14.80;99.90;;;;;;5079525;28;20028;-65
2022/07/04 00:46:33;;;;;;;2.95;2.05;;;14.90;99.90;;;;;;5074259;28;20107;-61
2022/07/04 00:49:00;;;;;;;4.43;2.17;;;14.80;99.90;;;;;;5073268;28;20046;-63
2022/07/04 00:51:26;;;;;;;4.72;2.10;;;14.80;99.90;;;;;;5076722;28;20025;-62
2022/07/04 00:53:54;;;;;;;3.05;1.85;;;14.80;99.90;;;;;;5080203;28;20462;-63
2022/07/04 00:56:23;;;;;;;2.92;2.03;;;14.80;99.90;;;;;;5088120;28;20029;-63
2022/07/04 00:58:50;;;;;;;6.28;2.33;;;14.70;99.90;;;;;;5080224;28;20034;-64
2022/07/04 01:01:16;;;;;;;4.93;2.75;;;14.80;99.90;;;;;;5083167;28;20036;-62
2022/07/04 01:03:43;;;;;;;2.83;2.03;;;14.70;99.90;;;;;;5077167;28;20036;-62
2022/07/04 01:06:09;;;;;;;5.78;2.10;;;14.70;99.90;;;;;;5078948;28;20606;-63
2022/07/04 01:08:37;;;;;;;6.55;2.63;;;14.70;99.90;;;;;;5083424;28;20028;-63
2022/07/04 01:11:02;;;;;;;4.28;2.30;;;14.60;99.90;;;;;;5080314;28;20035;-62
2022/07/04 01:13:28;;;;;;;6.63;2.45;;;14.50;99.90;;;;;;5078884;28;20029;-62
2022/07/04 01:15:56;;;;;;;4.93;2.38;;;14.60;99.90;;;;;;5082195;28;20021;-63
2022/07/04 01:18:22;;;;;;;5.63;2.58;;;14.80;99.90;;;;;;5078322;28;20032;-62
2022/07/04 01:20:48;;;;;;;5.60;2.60;;;14.60;99.90;;;;;;5081605;28;20520;-62
2022/07/04 01:23:13;;;;;;;4.63;2.60;;;14.50;99.90;;;;;;5084325;28;20043;-62
2022/07/04 01:25:39;;;;;;;4.90;2.70;;;14.60;99.90;;;;;;5081633;28;21019;-62
2022/07/04 01:28:06;;;;;;;4.78;2.50;;;14.50;99.90;;;;;;5092927;28;20077;-62
2022/07/04 01:30:33;;;;;;;3.78;2.40;;;14.60;99.90;;;;;;5077898;28;20036;-62
2022/07/04 01:32:58;;;;;;;5.20;2.70;;;14.50;99.90;;;;;;5086969;28;20031;-63
2022/07/04 01:35:24;;;;;;;6.15;2.83;;;14.50;99.90;;;;;;5076204;28;20024;-63
2022/07/04 01:37:50;;;;;;;7.22;2.53;;;14.40;99.90;;;;;;5078548;28;20394;-62
2022/07/04 01:40:16;;;;;;;4.32;2.55;;;14.30;99.90;;;;;;5083397;28;20067;-62
2022/07/04 01:42:42;;;;;;;4.18;2.40;;;14.40;99.90;;;;;;5080402;28;20032;-63
2022/07/04 01:45:09;;;;;;;6.00;2.97;;;14.30;99.90;;;;;;5077844;28;20039;-62
2022/07/04 01:47:36;;;;;;;4.45;2.38;;;14.40;99.90;;;;;;5074441;28;20249;-62
2022/07/04 01:50:03;;;;;;;4.47;2.60;;;14.30;99.90;;;;;;5076220;28;20482;-62
2022/07/04 01:52:29;;;;;;;5.63;2.97;;;14.40;99.90;;;;;;5070830;28;20022;-62
2022/07/04 01:54:54;;;;;;;6.80;2.80;;;14.40;99.90;;;;;;5075475;28;20025;-62
2022/07/04 01:57:20;;;;;;;3.67;2.47;;;14.30;99.90;;;;;;5074968;28;20036;-65
2022/07/04 02:02:32;;;;;;;4.65;2.90;;;14.20;99.90;;;;;;5080283;28;20063;-61
2022/07/04 02:04:59;;;;;;;6.60;2.80;;;14.20;99.90;;;;;;5083195;28;20137;-63
2022/07/04 02:07:24;;;;;;;5.18;3.20;;;14.10;99.90;;;;;;5076862;28;20020;-63
2022/07/04 02:09:50;;;;;;;7.47;3.40;;;14.10;99.90;;;;;;5077036;28;20902;-62
2022/07/04 02:15:00;;;;;;;5.97;2.90;;;14.00;99.90;;;;;;5075495;28;20426;-64
2022/07/04 02:17:26;;;;;;;4.38;3.08;;;14.00;99.90;;;;;;5074457;28;20036;-62
2022/07/04 02:19:51;;;;;;;3.53;2.60;;;14.10;99.90;;;;;;5079007;28;20233;-61
2022/07/04 02:22:17;;;;;;;3.75;2.63;;;14.10;99.90;;;;;;5072207;28;20070;-62
2022/07/04 02:24:43;;;;;;;4.72;2.95;;;14.00;99.90;;;;;;5073486;28;20024;-63
2022/07/04 02:27:08;;;;;;;4.43;2.80;;;14.00;99.90;;;;;;5088022;28;20047;-63
2022/07/04 02:29:35;;;;;;;5.22;2.38;;;13.90;99.90;;;;;;5076896;28;20039;-62
2022/07/04 02:32:01;;;;;;;6.43;3.10;;;13.90;99.90;;;;;;5081057;28;20525;-61
2022/07/04 02:34:27;;;;;;;4.75;2.60;;;13.90;99.90;;;;;;5077002;28;20171;-62
2022/07/04 02:36:53;;;;;;;6.72;2.72;;;13.80;99.90;;;;;;5071395;28;20448;-63
2022/07/04 02:39:18;;;;;;;3.83;2.40;;;13.80;99.90;;;;;;5076663;28;20035;-62
2022/07/04 02:41:44;;;;;;;5.38;2.95;;;13.80;99.90;;;;;;5080704;28;20074;-61
2022/07/04 02:44:10;;;;;;;5.07;2.70;;;13.70;99.90;;;;;;5068492;28;20372;-61
2022/07/04 02:46:36;;;;;;;4.68;2.75;;;13.70;99.90;;;;;;5076507;28;20032;-65
2022/07/04 02:49:02;;;;;;;7.78;2.55;;;13.80;99.90;;;;;;5080105;28;20031;-63
2022/07/04 02:51:29;;;;;;;5.43;2.70;;;13.70;99.90;;;;;;5071068;28;20020;-62
2022/07/04 02:53:55;;;;;;;3.75;2.65;;;13.70;99.90;;;;;;5076265;28;20113;-63
2022/07/04 02:56:21;;;;;;;5.00;2.78;;;13.60;99.90;;;;;;5076649;28;20050;-62
2022/07/04 02:58:46;;;;;;;6.88;3.00;;;13.60;99.90;;;;;;5071006;28;20670;-64
2022/07/04 03:01:12;;;;;;;6.18;3.20;;;13.60;99.90;;;;;;5076412;28;20051;-62
2022/07/04 03:03:39;;;;;;;6.35;2.90;;;13.60;99.90;;;;;;5078661;28;20104;-62
2022/07/04 03:06:07;;;;;;;6.53;2.90;;;13.60;99.90;;;;;;5079258;28;20036;-62
2022/07/04 03:08:32;;;;;;;4.90;2.70;;;13.60;99.90;;;;;;5080423;28;20513;-61
2022/07/04 03:10:58;;;;;;;4.88;3.00;;;13.60;99.90;;;;;;5077987;28;20028;-62
2022/07/04 03:13:24;;;;;;;4.43;2.90;;;13.50;99.90;;;;;;5082452;28;20031;-64
2022/07/04 03:15:50;;;;;;;8.88;3.03;;;13.60;99.90;;;;;;5075883;28;20016;-61
2022/07/04 03:18:16;;;;;;;5.43;3.00;;;13.50;99.90;;;;;;5070236;28;20165;-62
2022/07/04 03:20:41;;;;;;;5.07;3.00;;;13.50;99.90;;;;;;5074654;28;20026;-62
2022/07/04 03:23:07;;;;;;;4.75;2.75;;;13.50;99.90;;;;;;5071435;28;20013;-62
2022/07/04 03:25:33;;;;;;;6.55;3.22;;;13.50;99.90;;;;;;5069667;28;20506;-61
2022/07/04 03:27:58;;;;;;;5.60;3.40;;;13.50;99.90;;;;;;5072277;28;20023;-62
2022/07/04 03:30:24;;;;;;;6.03;3.72;;;13.50;99.90;;;;;;5073435;28;20101;-62
2022/07/04 03:32:49;;;;;;;6.47;3.63;;;13.40;99.90;;;;;;5078677;28;20035;-61
2022/07/04 03:35:15;;;;;;;5.95;3.78;;;13.50;99.90;;;;;;5081003;28;20027;-62
2022/07/04 03:37:41;;;;;;;6.70;3.88;;;13.50;99.90;;;;;;5078836;28;20028;-63
2022/07/04 03:40:07;;;;;;;5.93;3.30;;;13.50;99.90;;;;;;5082059;28;20387;-62
2022/07/04 03:42:33;;;;;;;7.13;3.60;;;13.50;99.90;;;;;;5080515;28;20024;-62
2022/07/04 03:44:58;;;;;;;6.47;3.55;;;13.50;99.90;;;;;;5074685;28;20407;-62
2022/07/04 03:47:24;;;;;;;9.45;3.92;;;13.40;99.90;;;;;;5077295;28;20020;-62
2022/07/04 03:49:50;;;;;;;4.30;3.35;;;13.50;99.90;;;;;;5081922;28;20062;-62
2022/07/04 03:52:16;;;;;;;5.57;3.55;;;13.40;99.90;;;;;;5074083;28;20434;-62
2022/07/04 03:54:41;;;;;;;6.65;3.70;;;13.40;99.90;;;;;;5079295;28;20077;-63
2022/07/04 03:57:07;;;;;;;5.25;3.88;;;13.40;99.90;;;;;;5078750;28;20017;-63
2022/07/04 03:59:33;;;;;;;6.32;3.70;;;13.40;99.90;;;;;;5072768;28;20051;-63
2022/07/04 04:01:58;;;;;;;7.07;4.07;;;13.50;99.90;;;;;;5075579;28;20107;-63
2022/07/04 04:07:08;;;;;;;7.60;4.10;;;13.40;99.90;;;;;;5070024;28;20101;-61
2022/07/04 04:09:33;;;;;;;4.93;3.92;;;13.60;99.90;;;;;;5081732;28;20028;-62
2022/07/04 04:12:02;;;;;;;5.95;4.22;;;13.60;99.90;;;;;;5078686;28;20479;-63
2022/07/04 04:14:28;;;;;;;4.80;3.63;;;13.60;99.90;;;;;;5080121;28;20356;-63
2022/07/04 04:16:53;;;;;;;6.03;4.05;;;13.50;99.90;;;;;;5080051;28;20027;-61
2022/07/04 04:19:19;;;;;;;6.68;4.10;;;13.50;99.90;;;;;;5073750;28;20409;-63
2022/07/04 04:21:45;;;;;;;7.25;4.75;;;13.50;99.90;;;;;;5081517;28;20024;-64
2022/07/04 04:24:10;;;;;;;8.88;4.90;;;13.70;99.90;;;;;;5087287;28;20490;-64
2022/07/04 04:26:36;;;;;;;6.85;4.47;;;13.70;99.90;;;;;;5081926;28;20024;-62
2022/07/04 04:29:02;;;;;;;8.30;4.72;;;13.70;99.90;;;;;;5072746;28;20103;-62
2022/07/04 04:31:28;;;;;;;7.05;4.45;;;13.70;99.90;;;;;;5073126;28;20040;-64
2022/07/04 04:33:54;;;;;;;6.78;4.57;;;13.70;99.90;;;;;;5077094;28;20078;-63
2022/07/04 04:36:19;;;;;;;8.68;4.63;;;13.80;99.90;;;;;;5069795;28;20098;-64
2022/07/04 04:38:45;;;;;;;6.97;4.90;;;13.80;99.90;;;;;;5079846;28;20073;-63
2022/07/04 04:41:10;;;;;;;5.10;4.43;;;14.00;99.90;;;;;;5072310;28;20029;-62
2022/07/04 04:43:37;;;;;;;9.13;5.03;;;13.90;99.90;;;;;;5079986;28;20033;-63
2022/07/04 04:46:02;;;;;;;7.85;4.82;;;14.00;99.90;;;;;;5075269;28;20412;-62
2022/07/04 04:48:28;;;;;;;8.13;5.05;;;13.90;99.90;;;;;;5070230;28;20040;-63
2022/07/04 04:50:53;;;;;;;9.35;4.70;;;14.40;99.90;;;;;;5075723;28;20043;-62
2022/07/04 04:53:22;;;;;;;9.70;5.45;;;14.20;99.90;;;;;;5074967;28;20029;-62
2022/07/04 04:55:48;;;;;;;10.65;5.28;;;14.30;99.90;;;;;;5082812;28;20024;-63
2022/07/04 04:58:13;;;;;;;8.80;5.20;;;14.50;99.90;;;;;;5077625;28;20045;-62
2022/07/04 05:00:39;;;;;;;10.02;5.15;;;14.00;99.90;;;;;;5071310;28;20036;-62
2022/07/04 05:03:04;;;;;;;8.15;5.18;;;14.40;99.90;;;;;;5078332;28;20624;-62
2022/07/04 05:05:30;;;;;;;10.57;4.85;;;14.20;99.90;;;;;;5075662;28;20427;-62
2022/07/04 05:07:56;;;;;;;7.90;5.18;;;14.40;99.90;;;;;;5076000;28;20472;-61
2022/07/04 05:10:21;;;;;;;10.98;4.97;;;14.70;99.90;;;;;;5080065;28;20039;-64
2022/07/04 05:12:47;;;;;;;13.10;5.78;;;14.90;99.90;;;;;;5081809;28;20027;-62
2022/07/04 05:15:13;;;;;;;7.90;5.72;;;15.10;99.90;;;;;;5084055;28;20030;-62
2022/07/04 05:17:38;;;;;;;9.70;5.68;;;15.30;99.90;;;;;;5071369;28;20059;-63
2022/07/04 05:20:07;;;;;;;12.35;5.78;;;15.50;99.90;;;;;;5067982;28;20035;-63
2022/07/04 05:22:33;;;;;;;10.63;5.57;;;15.70;99.90;;;;;;5078873;28;20089;-64
2022/07/04 05:24:59;;;;;;;9.43;6.00;;;15.80;99.90;;;;;;5078542;28;20036;-64
2022/07/04 05:27:26;;;;;;;10.20;5.88;;;16.00;99.90;;;;;;5080181;28;20028;-63
2022/07/04 05:29:51;;;;;;;13.77;5.90;;;16.10;99.90;;;;;;5085297;28;20023;-62
2022/07/04 05:32:17;;;;;;;11.13;5.70;;;16.30;99.90;;;;;;5075507;28;20466;-62
2022/07/04 05:34:42;;;;;;;13.65;5.15;;;16.40;99.90;;;;;;5075449;28;20062;-62
2022/07/04 05:37:08;;;;;;;9.52;4.63;;;16.50;99.90;;;;;;5080151;28;20051;-62
2022/07/04 05:39:34;;;;;;;8.07;5.10;;;16.60;99.90;;;;;;5078161;28;20153;-62
2022/07/04 05:41:59;;;;;;;7.47;4.68;;;16.70;99.90;;;;;;5071210;28;20140;-62
2022/07/04 05:44:25;;;;;;;9.05;4.50;;;17.20;99.90;;;;;;5075779;28;20397;-63
2022/07/04 05:46:51;;;;;;;9.57;4.60;;;16.90;99.90;;;;;;5081892;28;20032;-62
2022/07/04 05:49:16;;;;;;;8.93;4.18;;;16.90;99.90;;;;;;5077365;28;20077;-61
2022/07/04 05:51:44;;;;;;;9.55;4.43;;;16.90;99.90;;;;;;5074926;28;20054;-63
2022/07/04 05:54:10;;;;;;;7.60;4.00;;;16.90;99.90;;;;;;5076763;28;20036;-63
2022/07/04 05:56:37;;;;;;;9.20;4.18;;;17.20;99.90;;;;;;5073137;28;20053;-61
2022/07/04 05:59:03;;;;;;;8.20;4.43;;;17.50;99.90;;;;;;5080799;28;20085;-63
2022/07/04 06:01:28;;;;;;;10.70;4.15;;;17.20;99.90;;;;;;5078773;28;20028;-68
2022/07/04 06:03:54;;;;;;;7.05;3.80;;;17.40;99.90;;;;;;5073705;28;20094;-69
2022/07/04 06:06:19;;;;;;;8.13;3.95;;;17.40;99.90;;;;;;5079173;28;20105;-67
2022/07/04 06:08:45;;;;;;;8.95;4.28;;;17.30;99.90;;;;;;5075964;28;20348;-66
2022/07/04 06:11:10;;;;;;;8.68;4.22;;;17.60;99.90;;;;;;5077217;28;20115;-67
2022/07/04 06:13:36;;;;;;;7.95;3.70;;;18.10;99.90;;;;;;5078353;28;20490;-69
2022/07/04 06:16:02;;;;;;;8.20;3.63;;;17.60;99.90;;;;;;5077845;28;20016;-68
2022/07/04 06:18:27;;;;;;;7.97;3.35;;;17.90;99.90;;;;;;5078611;28;20020;-67
2022/07/04 06:20:53;;;;;;;8.02;2.92;;;18.00;99.90;;;;;;5073324;28;20028;-67
2022/07/04 06:23:18;;;;;;;7.60;3.17;;;18.00;99.90;;;;;;5066854;28;20366;-67
2022/07/04 06:25:44;;;;;;;5.35;2.58;;;18.10;99.90;;;;;;5072997;28;20396;-67
2022/07/04 06:28:10;;;;;;;5.45;2.75;;;18.30;99.90;;;;;;5074456;28;20501;-67
2022/07/04 06:30:35;;;;;;;4.63;2.40;;;18.30;99.90;;;;;;5078357;28;20028;-67
2022/07/04 06:33:01;;;;;;;7.30;3.03;;;18.20;99.90;;;;;;5072877;28;20415;-67
2022/07/04 06:35:46;;;;;;;71.38;52.03;;;18.30;99.90;;;;;;5082231;28;20035;-63
2022/07/04 06:38:13;;;;;;;10.90;7.43;;;18.30;99.90;;;;;;5075302;28;20056;-67
2022/07/04 06:40:39;;;;;;;6.47;1.73;;;18.30;99.90;;;;;;5073673;28;20024;-67
2022/07/04 06:43:05;;;;;;;5.03;1.80;;;18.40;99.90;;;;;;5075358;28;20517;-67
2022/07/04 06:45:31;;;;;;;5.72;1.73;;;18.50;99.90;;;;;;5085761;28;20109;-67
2022/07/04 06:47:57;;;;;;;2.33;1.30;;;18.60;99.90;;;;;;5074967;28;20025;-67
2022/07/04 06:50:23;;;;;;;5.28;1.70;;;18.70;99.90;;;;;;5070971;28;20092;-67
2022/07/04 06:52:48;;;;;;;5.53;1.70;;;18.90;99.90;;;;;;5078658;28;20571;-66
2022/07/04 06:55:14;;;;;;;5.45;2.08;;;18.80;99.90;;;;;;5068449;28;20028;-67
2022/07/04 06:57:40;;;;;;;6.22;1.67;;;18.70;99.90;;;;;;5078659;28;20056;-67
2022/07/04 07:00:07;;;;;;;6.20;1.73;;;18.70;99.90;;;;;;5074226;28;20476;-67
2022/07/04 07:02:37;;;;;;;5.25;1.70;;;18.80;99.90;;;;;;5076491;28;20063;-67
2022/07/04 07:05:04;;;;;;;6.00;1.83;;;19.00;99.90;;;;;;5084316;28;20485;-67
2022/07/04 07:07:30;;;;;;;4.85;1.65;;;;;;;;;;5071520;28;20396;-67
2022/07/04 07:09:56;;;;;;;9.30;1.58;;;19.10;99.90;;;;;;5075884;28;20059;-67
2022/07/04 07:12:22;;;;;;;5.72;1.77;;;19.10;99.90;;;;;;5072527;28;20070;-67
2022/07/04 07:14:49;;;;;;;4.32;1.45;;;19.10;99.90;;;;;;5044068;28;20028;-67
2022/07/04 07:17:15;;;;;;;5.07;1.88;;;19.10;99.90;;;;;;5071269;28;20032;-67
2022/07/04 07:19:42;;;;;;;6.82;1.52;;;19.00;99.90;;;;;;5075942;28;20016;-67
2022/07/04 07:22:12;;;;;;;5.43;1.50;;;18.80;99.90;;;;;;5069971;28;20028;-67
2022/07/04 07:24:37;;;;;;;7.10;1.45;;;18.80;99.90;;;;;;5070199;28;20400;-67
2022/07/04 07:27:04;;;;;;;6.18;1.65;;;18.80;99.90;;;;;;5073756;28;20032;-67
2022/07/04 07:29:29;;;;;;;3.10;1.10;;;19.00;99.90;;;;;;5078889;28;20081;-67
2022/07/04 07:31:55;;;;;;;4.47;1.65;;;19.20;99.90;;;;;;5070317;28;20032;-67
2022/07/04 07:34:20;;;;;;;3.80;1.30;;;19.20;99.90;;;;;;5074277;28;20020;-68
2022/07/04 07:36:46;;;;;;;4.57;1.08;;;19.30;99.90;;;;;;5074796;28;20027;-67
2022/07/04 07:39:12;;;;;;;4.95;1.08;;;19.20;99.90;;;;;;5071696;28;20438;-67
2022/07/04 07:41:37;;;;;;;2.42;1.20;;;19.30;99.90;;;;;;5068406;28;20028;-68
2022/07/04 07:44:03;;;;;;;5.13;1.35;;;19.20;99.90;;;;;;5072887;28;20024;-67
2022/07/04 07:46:29;;;;;;;4.30;0.98;;;19.30;99.90;;;;;;5076165;28;20040;-67
2022/07/04 07:48:54;;;;;;;2.65;1.02;;;19.40;99.90;;;;;;5067772;28;20631;-68
2022/07/04 07:51:20;;;;;;;8.88;1.10;;;19.40;99.90;;;;;;5071442;28;20035;-67
2022/07/04 07:53:45;;;;;;;7.32;1.40;;;19.60;99.90;;;;;;5069958;28;20036;-68
2022/07/04 07:56:11;;;;;;;3.35;1.23;;;19.60;99.90;;;;;;5083627;28;20380;-67
2022/07/04 07:58:36;;;;;;;5.15;1.38;;;19.60;99.90;;;;;;5074997;28;20053;-68
2022/07/04 08:01:02;;;;;;;4.55;1.27;;;19.80;99.90;;;;;;5076741;28;20042;-68
2022/07/04 08:06:13;;;;;;;4.88;0.90;;;19.80;99.90;;;;;;5075248;28;20031;-67
2022/07/04 08:08:39;;;;;;;5.15;1.00;;;19.70;99.90;;;;;;5075119;28;20562;-67
2022/07/04 08:11:05;;;;;;;6.97;1.38;;;19.80;99.90;;;;;;5074813;28;20027;-66
2022/07/04 08:13:31;;;;;;;5.88;1.20;;;20.00;99.90;;;;;;5073268;28;20020;-66
2022/07/04 08:15:57;;;;;;;3.42;1.23;;;20.10;99.90;;;;;;5073452;28;20149;-66
2022/07/04 08:18:22;;;;;;;5.15;0.95;;;20.20;99.90;;;;;;5074391;28;20028;-66
2022/07/04 08:20:49;;;;;;;3.45;1.00;;;20.30;99.90;;;;;;5076641;28;20023;-66
2022/07/04 08:23:15;;;;;;;3.72;1.00;;;20.40;99.90;;;;;;5088624;28;20465;-67
2022/07/04 08:25:41;;;;;;;4.63;1.40;;;20.50;99.90;;;;;;5079208;28;20157;-66
2022/07/04 08:28:06;;;;;;;6.15;1.10;;;20.60;99.90;;;;;;5080665;28;20143;-67
2022/07/04 08:30:33;;;;;;;4.70;1.25;;;20.70;99.90;;;;;;5077478;28;20078;-66
2022/07/04 08:32:58;;;;;;;3.78;1.27;;;20.70;99.90;;;;;;5085171;28;20020;-66
2022/07/04 08:35:24;;;;;;;3.78;0.80;;;20.70;99.90;;;;;;5078395;28;20035;-66
2022/07/04 08:37:53;;;;;;;3.28;1.17;;;20.70;99.90;;;;;;5076053;28;20028;-67
2022/07/04 08:40:21;;;;;;;4.93;1.10;;;20.70;99.90;;;;;;5079926;28;20031;-66
2022/07/04 08:42:46;;;;;;;4.25;1.13;;;20.30;99.90;;;;;;5078291;28;20027;-67
2022/07/04 08:45:15;;;;;;;5.63;1.20;;;20.40;99.90;;;;;;5079293;28;20028;-67
2022/07/04 08:47:42;;;;;;;3.20;1.00;;;20.50;99.90;;;;;;5074345;28;20040;-67
2022/07/04 08:50:26;;;;;;;6.43;1.30;;;20.70;99.90;;;;;;5080501;28;20028;-67
2022/07/04 08:53:09;;;;;;;3.17;1.00;;;20.80;99.90;;;;;;5080873;28;20676;-67
2022/07/04 08:58:26;;;;;;;15.00;11.77;;;21.20;99.90;;;;;;5085374;28;20046;-68
2022/07/04 09:00:57;;;;;;;3.93;1.10;;;21.30;99.90;;;;;;5075467;28;20464;-68
2022/07/04 09:03:23;;;;;;;5.05;1.20;;;21.30;99.90;;;;;;5075324;28;20267;-70
2022/07/04 09:05:49;;;;;;;7.88;1.63;;;21.30;99.90;;;;;;5074883;28;20077;-68
2022/07/04 09:08:15;;;;;;;5.38;1.20;;;21.30;99.90;;;;;;5074423;28;20048;-69
2022/07/04 09:10:41;;;;;;;3.25;1.00;;;21.10;99.90;;;;;;5071869;28;20111;-72
2022/07/04 09:13:08;;;;;;;4.78;1.02;;;21.10;99.90;;;;;;5080324;28;20103;-73
2022/07/04 09:15:34;;;;;;;6.60;1.17;;;20.80;99.90;;;;;;5083164;28;20032;-66
2022/07/04 09:18:01;;;;;;;7.38;1.30;;;21.20;99.90;;;;;;5075511;28;20400;-67
2022/07/04 09:20:29;;;;;;;8.38;1.15;;;21.40;99.90;;;;;;5080330;28;20395;-67
2022/07/04 09:22:55;;;;;;;4.60;1.20;;;21.20;99.90;;;;;;5084394;28;20020;-67
2022/07/04 09:25:24;;;;;;;5.55;1.40;;;21.30;99.90;;;;;;5079625;28;20555;-67
2022/07/04 09:27:54;;;;;;;5.13;1.25;;;21.30;99.90;;;;;;5080736;28;20070;-68
2022/07/04 09:30:24;;;;;;;5.28;1.15;;;21.20;99.90;;;;;;5075542;28;20047;-67
2022/07/04 09:33:02;;;;;;;7.35;1.60;;;21.50;99.90;;;;;;5081558;28;20029;-68
2022/07/04 09:35:29;;;;;;;4.75;1.25;;;21.50;99.90;;;;;;5068782;28;20472;-67
2022/07/04 09:38:00;;;;;;;4.25;1.17;;;21.70;99.90;;;;;;5086414;28;20027;-66
2022/07/04 09:40:28;;;;;;;5.13;1.08;;;21.60;99.90;;;;;;5080685;28;20433;-67
2022/07/04 09:42:56;;;;;;;5.38;1.25;;;21.60;99.90;;;;;;5083469;28;20077;-67
2022/07/04 09:45:24;;;;;;;3.88;1.05;;;21.60;99.90;;;;;;5081978;28;20026;-68
2022/07/04 09:47:51;;;;;;;7.47;1.13;;;21.60;99.90;;;;;;5074221;28;20047;-67
2022/07/04 09:50:20;;;;;;;2.72;1.00;;;21.70;99.90;;;;;;5070338;28;20916;-68
2022/07/04 09:52:47;;;;;;;4.28;0.82;;;22.00;99.90;;;;;;5076131;28;20023;-69
2022/07/04 09:55:19;;;;;;;3.08;0.90;;;21.90;99.90;;;;;;5081067;28;20391;-68
2022/07/04 09:57:45;;;;;;;3.75;0.95;;;22.10;99.90;;;;;;5070218;28;20032;-66
2022/07/04 10:00:30;;;;;;;3.35;1.08;;;21.90;99.90;;;;;;5081650;28;20475;-67
2022/07/04 10:02:57;;;;;;;4.70;1.40;;;21.70;99.90;;;;;;5080882;28;20519;-62
2022/07/04 10:05:27;;;;;;;5.18;1.52;;;21.90;99.90;;;;;;5074362;28;20024;-60
2022/07/04 10:07:58;;;;;;;5.43;1.23;;;21.90;99.90;;;;;;5074293;28;20583;-62
2022/07/04 10:10:28;;;;;;;3.40;1.30;;;21.90;99.90;;;;;;5073989;28;20066;-63
2022/07/04 10:12:57;;;;;;;4.70;1.45;;;22.10;99.90;;;;;;5078821;28;20054;-62
2022/07/04 10:15:22;;;;;;;7.57;1.00;;;21.90;99.90;;;;;;5074219;28;20506;-62
2022/07/04 10:17:48;;;;;;;5.95;1.15;;;22.10;99.90;;;;;;5077808;28;20115;-62
2022/07/04 10:20:14;;;;;;;3.47;1.10;;;22.00;99.90;;;;;;5076747;28;20263;-61
2022/07/04 10:22:40;;;;;;;3.05;1.02;;;22.00;99.90;;;;;;5077649;28;20036;-63
2022/07/04 10:25:08;;;;;;;4.55;1.00;;;22.40;99.90;;;;;;5076541;28;20024;-61
2022/07/04 10:27:35;;;;;;;4.50;0.90;;;22.40;99.90;;;;;;5080606;28;20289;-62
2022/07/04 10:30:03;;;;;;;4.88;0.90;;;22.30;99.90;;;;;;5087966;28;20084;-62
2022/07/04 10:32:30;;;;;;;2.60;0.93;;;22.40;99.90;;;;;;5082097;28;20039;-62
2022/07/04 10:34:55;;;;;;;3.70;0.75;;;22.20;99.90;;;;;;5070721;28;20067;-63
2022/07/04 10:37:21;;;;;;;4.65;0.90;;;22.50;99.90;;;;;;5074965;28;20032;-62
2022/07/04 10:39:50;;;;;;;5.32;1.00;;;22.60;99.90;;;;;;5082918;28;20031;-61
2022/07/04 10:42:25;;;;;;;6.05;0.98;;;22.70;99.90;;;;;;5078382;28;20033;-63
2022/07/04 10:44:53;;;;;;;5.05;1.05;;;22.60;99.90;;;;;;5086162;28;20027;-61
2022/07/04 10:47:27;;;;;;;6.43;3.58;;;22.80;99.90;;;;;;5072845;28;20520;-61
2022/07/04 10:49:53;;;;;;;4.38;1.23;;;23.10;99.90;;;;;;5080389;28;20028;-62
2022/07/04 10:52:19;;;;;;;2.28;0.98;;;22.90;99.90;;;;;;5073975;28;20032;-62
2022/07/04 10:54:45;;;;;;;3.20;1.10;;;22.90;99.90;;;;;;5076153;28;20387;-62
2022/07/04 10:57:13;;;;;;;4.53;0.88;;;22.80;99.90;;;;;;5082628;28;20051;-61
2022/07/04 10:59:41;;;;;;;3.92;0.90;;;22.70;99.90;;;;;;5081177;28;20039;-62
2022/07/04 11:02:07;;;;;;;5.00;0.90;;;22.70;99.90;;;;;;5076435;28;20035;-62
2022/07/04 11:05:01;;;;;;;4.88;0.90;;;22.80;99.90;;;;;;5079900;28;20028;-61
2022/07/04 11:07:30;;;;;;;2.13;0.90;;;23.00;99.90;;;;;;5070534;28;20055;-62
2022/07/04 11:10:15;;;;;;;6.28;1.10;;;22.90;99.90;;;;;;5076370;28;20032;-62
2022/07/04 11:13:02;;;;;;;5.35;0.90;;;23.10;99.90;;;;;;5075914;28;21507;-62
2022/07/04 11:15:28;;;;;;;3.58;1.00;;;23.10;99.90;;;;;;5079532;28;20106;-62
2022/07/04 11:17:55;;;;;;;4.50;0.80;;;23.30;99.90;;;;;;5087771;28;20032;-63
2022/07/04 11:20:22;;;;;;;5.68;1.23;;;23.30;99.90;;;;;;5085387;28;20031;-62
2022/07/04 11:22:48;;;;;;;3.38;1.00;;;23.50;99.90;;;;;;5076202;28;20105;-62
2022/07/04 11:25:14;;;;;;;3.47;0.95;;;23.50;99.90;;;;;;5075797;28;20277;-62
2022/07/04 11:27:40;;;;;;;3.70;0.98;;;23.40;99.90;;;;;;5077703;28;20071;-61
2022/07/04 11:30:07;;;;;;;3.60;0.85;;;23.30;99.90;;;;;;5074845;28;20452;-62
2022/07/04 11:32:35;;;;;;;3.08;1.00;;;23.40;99.90;;;;;;5079863;28;20031;-62
2022/07/04 11:35:03;;;;;;;2.22;0.85;;;23.50;99.90;;;;;;5072483;28;20038;-63
2022/07/04 11:37:28;;;;;;;3.50;1.02;;;23.20;99.90;;;;;;5067260;28;20554;-63
2022/07/04 11:45:24;;;;;;;5.82;0.70;;;23.70;99.90;;;;;;5077719;28;20035;-63
2022/07/04 11:47:50;;;;;;;3.35;1.08;;;23.50;99.90;;;;;;5077022;28;20024;-62
2022/07/04 11:50:18;;;;;;;4.03;1.30;;;23.40;99.90;;;;;;5086842;28;20017;-62
2022/07/04 11:52:51;;;;;;;2.95;0.75;;;23.20;99.90;;;;;;5077361;28;20017;-62
2022/07/04 11:55:17;;;;;;;4.43;0.90;;;23.30;99.90;;;;;;5083666;28;20833;-62
2022/07/04 11:57:45;;;;;;;2.92;1.02;;;23.40;99.90;;;;;;5081053;28;20135;-62
2022/07/04 12:00:20;;;;;;;4.50;2.40;;;23.30;99.90;;;;;;5079122;27;20608;-63
2022/07/04 12:02:48;;;;;;;6.85;1.30;;;23.10;99.90;;;;;;5079231;28;20057;-62
2022/07/04 12:05:15;;;;;;;5.20;1.17;;;23.10;99.90;;;;;;5082418;28;20043;-63
2022/07/04 12:07:43;;;;;;;4.68;1.00;;;23.10;99.90;;;;;;5079715;28;20042;-62
2022/07/04 12:10:12;;;;;;;2.85;1.00;;;23.10;99.90;;;;;;5080268;28;20050;-62
2022/07/04 12:13:12;;;;;;;4.60;0.88;;;23.00;99.90;;;;;;5079096;28;20426;-63
2022/07/04 12:15:43;;;;;;;5.07;0.90;;;23.10;99.90;;;;;;5076831;28;20107;-63
2022/07/04 12:18:19;;;;;;;3.65;0.82;;;23.40;99.90;;;;;;5080190;28;20025;-64
2022/07/04 12:20:49;;;;;;;4.45;0.98;;;23.30;99.90;;;;;;5080682;28;20035;-63
2022/07/04 12:23:15;;;;;;;2.17;0.80;;;23.50;99.90;;;;;;5076017;28;20025;-63
2022/07/04 12:25:40;;;;;;;3.83;0.93;;;23.50;99.90;;;;;;5082590;28;20348;-63
2022/07/04 12:28:09;;;;;;;3.13;0.90;;;23.30;99.90;;;;;;5076749;28;20487;-63
2022/07/04 12:30:35;;;;;;;2.97;0.90;;;23.30;99.90;;;;;;5080059;28;20021;-62
2022/07/04 12:33:07;;;;;;;3.72;0.75;;;23.40;99.90;;;;;;5079535;28;20546;-63
2022/07/04 12:35:36;;;;;;;3.20;0.80;;;23.00;99.90;;;;;;5079705;28;20047;-63
2022/07/04 12:38:03;;;;;;;2.20;1.02;;;23.10;99.90;;;;;;5073141;28;20026;-62
2022/07/04 12:40:28;;;;;;;2.90;0.90;;;23.30;99.90;;;;;;5079095;28;20575;-63
2022/07/04 12:42:58;;;;;;;5.10;1.00;;;22.90;99.90;;;;;;5072203;28;20176;-63
2022/07/04 12:45:24;;;;;;;3.42;1.10;;;23.00;99.90;;;;;;5076276;28;20081;-65
2022/07/04 12:47:50;;;;;;;4.28;0.93;;;23.00;99.90;;;;;;5069884;28;20296;-63
2022/07/04 12:50:25;;;;;;;2.15;0.90;;;23.10;99.90;;;;;;5080825;28;20070;-68
2022/07/04 12:52:52;;;;;;;4.20;0.95;;;23.20;99.90;;;;;;5081049;28;20017;-67
2022/07/04 12:55:17;;;;;;;3.70;1.33;;;23.50;99.90;;;;;;5077573;28;20471;-67
2022/07/04 12:57:43;;;;;;;3.20;0.90;;;23.50;99.90;;;;;;5078878;28;20056;-67
2022/07/04 13:00:09;;;;;;;3.25;1.00;;;23.40;99.90;;;;;;5074402;28;20746;-67
2022/07/04 13:02:35;;;;;;;3.63;1.02;;;23.10;99.90;;;;;;5082719;28;20500;-68